DAL7892 KJFK-KBOS
Flight info
| Callsign | DAL7892 |
|---|---|
| Flight time | 0h 57m |
| Altitude | 21000 |
| Route | MERIT ROBUC3 |
| Aircraft | B738/M-SDE2E3FGHIRWXY/LB1 |
Departure
| Time | 2026-05-09 01:38 |
|---|---|
| Airport | John F. Kennedy International Airport (KJFK) |
Arrival
| Time | 2026-05-09 02:36 |
|---|---|
| Airport | Boston Logan International Airport (KBOS) |
| Time | Latitude | Longitude | Altitude | Speed | Heading |
|---|---|---|---|---|---|
| 2026-05-09 00:50 | 40.63905 | -73.78041 | 19 ft | 0 kts | 260° |
| 2026-05-09 01:24 | 40.63906 | -73.78038 | 19 ft | 2 kts | 260° |
| 2026-05-09 01:24 | 40.63908 | -73.78015 | 19 ft | 3 kts | 265° |
| 2026-05-09 01:25 | 40.63909 | -73.77988 | 19 ft | 3 kts | 265° |
| 2026-05-09 01:25 | 40.63911 | -73.77967 | 19 ft | 3 kts | 255° |
| 2026-05-09 01:25 | 40.63918 | -73.77947 | 21 ft | 3 kts | 209° |
| 2026-05-09 01:25 | 40.63936 | -73.77941 | 22 ft | 3 kts | 175° |
| 2026-05-09 01:26 | 40.63945 | -73.77942 | 21 ft | 0 kts | 173° |
| 2026-05-09 01:29 | 40.63940 | -73.77941 | 21 ft | 2 kts | 173° |
| 2026-05-09 01:29 | 40.63912 | -73.77937 | 21 ft | 6 kts | 173° |
| 2026-05-09 01:29 | 40.63858 | -73.77929 | 19 ft | 10 kts | 173° |
| 2026-05-09 01:30 | 40.63805 | -73.77919 | 19 ft | 8 kts | 171° |
| 2026-05-09 01:30 | 40.63768 | -73.77911 | 19 ft | 0 kts | 171° |
| 2026-05-09 01:31 | 40.63735 | -73.77906 | 19 ft | 13 kts | 174° |
| 2026-05-09 01:31 | 40.63649 | -73.77894 | 19 ft | 20 kts | 173° |
| 2026-05-09 01:31 | 40.63577 | -73.77862 | 19 ft | 7 kts | 142° |
| 2026-05-09 01:32 | 40.63549 | -73.77812 | 19 ft | 7 kts | 120° |
| 2026-05-09 01:32 | 40.63539 | -73.77805 | 19 ft | 2 kts | 171° |
| 2026-05-09 01:32 | 40.63521 | -73.77814 | 20 ft | 5 kts | 208° |
| 2026-05-09 01:32 | 40.63471 | -73.77852 | 20 ft | 10 kts | 211° |
| 2026-05-09 01:33 | 40.63446 | -73.77873 | 20 ft | 4 kts | 212° |
| 2026-05-09 01:33 | 40.63413 | -73.77900 | 20 ft | 8 kts | 213° |
| 2026-05-09 01:33 | 40.63361 | -73.77911 | 20 ft | 9 kts | 143° |
| 2026-05-09 01:33 | 40.63328 | -73.77848 | 21 ft | 8 kts | 121° |
| 2026-05-09 01:34 | 40.63298 | -73.77784 | 23 ft | 9 kts | 121° |
| 2026-05-09 01:34 | 40.63253 | -73.77687 | 23 ft | 17 kts | 121° |
| 2026-05-09 01:34 | 40.63186 | -73.77535 | 21 ft | 20 kts | 120° |
| 2026-05-09 01:34 | 40.63126 | -73.77402 | 20 ft | 15 kts | 121° |
| 2026-05-09 01:35 | 40.63073 | -73.77285 | 21 ft | 15 kts | 121° |
| 2026-05-09 01:35 | 40.63022 | -73.77172 | 20 ft | 14 kts | 121° |
| 2026-05-09 01:35 | 40.62985 | -73.77094 | 21 ft | 6 kts | 133° |
| 2026-05-09 01:35 | 40.62943 | -73.77090 | 20 ft | 6 kts | 204° |
| 2026-05-09 01:36 | 40.62906 | -73.77118 | 20 ft | 0 kts | 210° |
| 2026-05-09 01:37 | 40.62885 | -73.77134 | 21 ft | 3 kts | 210° |
| 2026-05-09 01:37 | 40.62860 | -73.77153 | 21 ft | 4 kts | 210° |
| 2026-05-09 01:37 | 40.62833 | -73.77174 | 21 ft | 4 kts | 214° |
| 2026-05-09 01:37 | 40.62823 | -73.77224 | 21 ft | 9 kts | 277° |
| 2026-05-09 01:38 | 40.62872 | -73.77339 | 22 ft | 30 kts | 301° |
| 2026-05-09 01:38 | 40.63159 | -73.77972 | 25 ft | 127 kts | 300° |
| 2026-05-09 01:38 | 40.63725 | -73.79259 | 205 ft | 191 kts | 298° |
| 2026-05-09 01:38 | 40.64252 | -73.80852 | 1514 ft | 178 kts | 283° |
| 2026-05-09 01:39 | 40.64510 | -73.82431 | 2722 ft | 183 kts | 282° |
| 2026-05-09 01:39 | 40.64581 | -73.84177 | 3179 ft | 207 kts | 253° |
| 2026-05-09 01:39 | 40.63624 | -73.85663 | 3664 ft | 226 kts | 213° |
| 2026-05-09 01:39 | 40.62171 | -73.86549 | 4313 ft | 234 kts | 207° |
| 2026-05-09 01:40 | 40.60641 | -73.87396 | 5073 ft | 236 kts | 207° |
| 2026-05-09 01:40 | 40.59096 | -73.88058 | 5869 ft | 239 kts | 196° |
| 2026-05-09 01:40 | 40.57431 | -73.88289 | 6623 ft | 243 kts | 190° |
| 2026-05-09 01:40 | 40.55738 | -73.88379 | 7321 ft | 243 kts | 193° |
| 2026-05-09 01:41 | 40.54098 | -73.88791 | 8018 ft | 237 kts | 205° |
| 2026-05-09 01:41 | 40.52526 | -73.89433 | 8715 ft | 243 kts | 197° |
| 2026-05-09 01:41 | 40.50784 | -73.89189 | 9382 ft | 266 kts | 168° |
| 2026-05-09 01:41 | 40.49197 | -73.87789 | 10033 ft | 289 kts | 141° |
| 2026-05-09 01:42 | 40.48139 | -73.85462 | 10562 ft | 308 kts | 112° |
| 2026-05-09 01:42 | 40.47888 | -73.82642 | 11091 ft | 316 kts | 83° |
| 2026-05-09 01:42 | 40.48517 | -73.79888 | 11533 ft | 320 kts | 58° |
| 2026-05-09 01:42 | 40.49894 | -73.77498 | 11412 ft | 338 kts | 40° |
| 2026-05-09 01:43 | 40.51609 | -73.75261 | 11069 ft | 362 kts | 38° |
| 2026-05-09 01:43 | 40.53517 | -73.72908 | 11062 ft | 387 kts | 38° |
| 2026-05-09 01:43 | 40.55504 | -73.70491 | 11018 ft | 390 kts | 37° |
| 2026-05-09 01:43 | 40.57503 | -73.68071 | 11013 ft | 390 kts | 37° |
| 2026-05-09 01:44 | 40.59501 | -73.65657 | 11010 ft | 390 kts | 37° |
| 2026-05-09 01:44 | 40.61499 | -73.63241 | 11010 ft | 388 kts | 37° |
| 2026-05-09 01:44 | 40.63456 | -73.60857 | 10996 ft | 376 kts | 37° |
| 2026-05-09 01:44 | 40.65347 | -73.58601 | 10979 ft | 358 kts | 32° |
| 2026-05-09 01:45 | 40.67416 | -73.56985 | 10978 ft | 336 kts | 17° |
| 2026-05-09 01:45 | 40.69537 | -73.55751 | 10996 ft | 335 kts | 15° |
| 2026-05-09 01:45 | 40.71745 | -73.54519 | 11148 ft | 356 kts | 15° |
| 2026-05-09 01:45 | 40.74090 | -73.53197 | 11488 ft | 374 kts | 17° |
| 2026-05-09 01:46 | 40.76487 | -73.51803 | 12182 ft | 378 kts | 17° |
| 2026-05-09 01:46 | 40.78859 | -73.50270 | 13009 ft | 384 kts | 25° |
| 2026-05-09 01:46 | 40.81174 | -73.48527 | 13740 ft | 382 kts | 15° |
| 2026-05-09 01:46 | 40.83725 | -73.47783 | 14305 ft | 371 kts | 354° |
| 2026-05-09 01:47 | 40.86230 | -73.48173 | 15042 ft | 359 kts | 340° |
| 2026-05-09 01:47 | 40.88651 | -73.48985 | 15731 ft | 360 kts | 338° |
| 2026-05-09 01:47 | 40.91040 | -73.49873 | 16357 ft | 363 kts | 338° |
| 2026-05-09 01:47 | 40.93441 | -73.50784 | 16850 ft | 348 kts | 337° |
| 2026-05-09 01:48 | 40.95678 | -73.51614 | 16981 ft | 324 kts | 338° |
| 2026-05-09 01:48 | 40.97884 | -73.52020 | 16988 ft | 320 kts | 353° |
| 2026-05-09 01:48 | 41.00076 | -73.51808 | 16981 ft | 312 kts | 357° |
| 2026-05-09 01:48 | 41.02198 | -73.51227 | 16978 ft | 320 kts | 14° |
| 2026-05-09 01:49 | 41.04248 | -73.49759 | 17015 ft | 351 kts | 23° |
| 2026-05-09 01:49 | 41.06398 | -73.47989 | 17016 ft | 376 kts | 25° |
| 2026-05-09 01:49 | 41.08685 | -73.46092 | 17008 ft | 398 kts | 25° |
| 2026-05-09 01:49 | 41.11069 | -73.44124 | 16997 ft | 406 kts | 25° |
| 2026-05-09 01:50 | 41.13469 | -73.42141 | 16982 ft | 406 kts | 25° |
| 2026-05-09 01:50 | 41.15861 | -73.40159 | 16981 ft | 405 kts | 25° |
| 2026-05-09 01:50 | 41.18253 | -73.38175 | 16986 ft | 405 kts | 25° |
| 2026-05-09 01:50 | 41.20635 | -73.36196 | 17006 ft | 405 kts | 25° |
| 2026-05-09 01:51 | 41.23045 | -73.34191 | 17286 ft | 411 kts | 25° |
| 2026-05-09 01:51 | 41.25474 | -73.32172 | 17944 ft | 413 kts | 25° |
| 2026-05-09 01:51 | 41.27908 | -73.30133 | 18604 ft | 415 kts | 27° |
| 2026-05-09 01:51 | 41.30195 | -73.27714 | 19128 ft | 425 kts | 34° |
| 2026-05-09 01:52 | 41.32324 | -73.24948 | 19707 ft | 433 kts | 44° |
| 2026-05-09 01:52 | 41.33935 | -73.21515 | 20383 ft | 445 kts | 61° |
| 2026-05-09 01:52 | 41.34895 | -73.17545 | 20871 ft | 457 kts | 74° |
| 2026-05-09 01:52 | 41.35442 | -73.13319 | 20995 ft | 470 kts | 77° |
| 2026-05-09 01:53 | 41.36000 | -73.08966 | 21008 ft | 483 kts | 77° |
| 2026-05-09 01:53 | 41.36589 | -73.04510 | 20994 ft | 493 kts | 77° |
| 2026-05-09 01:53 | 41.37201 | -72.99995 | 20982 ft | 496 kts | 76° |
| 2026-05-09 01:53 | 41.37819 | -72.95491 | 20971 ft | 492 kts | 76° |
| 2026-05-09 01:54 | 41.38436 | -72.91022 | 20968 ft | 490 kts | 76° |
| 2026-05-09 01:54 | 41.39045 | -72.86630 | 20972 ft | 488 kts | 76° |
| 2026-05-09 01:54 | 41.39661 | -72.82186 | 20979 ft | 488 kts | 76° |
| 2026-05-09 01:54 | 41.40275 | -72.77740 | 20979 ft | 489 kts | 76° |
| 2026-05-09 01:55 | 41.40890 | -72.73274 | 20999 ft | 492 kts | 76° |
| 2026-05-09 01:55 | 41.41505 | -72.68789 | 20987 ft | 492 kts | 76° |
| 2026-05-09 01:55 | 41.42116 | -72.64310 | 20999 ft | 491 kts | 76° |
| 2026-05-09 01:55 | 41.42726 | -72.59822 | 21001 ft | 492 kts | 76° |
| 2026-05-09 01:56 | 41.43333 | -72.55343 | 21000 ft | 492 kts | 76° |
| 2026-05-09 01:56 | 41.43936 | -72.50869 | 20935 ft | 485 kts | 76° |
| 2026-05-09 01:56 | 41.44532 | -72.46441 | 20949 ft | 487 kts | 76° |
| 2026-05-09 01:56 | 41.45134 | -72.41975 | 21001 ft | 492 kts | 76° |
| 2026-05-09 01:57 | 41.45738 | -72.37473 | 20986 ft | 493 kts | 76° |
| 2026-05-09 01:57 | 41.46336 | -72.32984 | 20976 ft | 491 kts | 76° |
| 2026-05-09 01:57 | 41.46932 | -72.28508 | 20982 ft | 490 kts | 76° |
| 2026-05-09 01:57 | 41.47521 | -72.24061 | 20961 ft | 478 kts | 76° |
| 2026-05-09 01:58 | 41.48218 | -72.19883 | 20801 ft | 445 kts | 65° |
| 2026-05-09 01:58 | 41.49502 | -72.16289 | 20555 ft | 420 kts | 56° |
| 2026-05-09 01:58 | 41.50819 | -72.12894 | 20284 ft | 404 kts | 56° |
| 2026-05-09 01:58 | 41.52070 | -72.09599 | 20038 ft | 399 kts | 57° |
| 2026-05-09 01:59 | 41.53348 | -72.06181 | 19835 ft | 424 kts | 58° |
| 2026-05-09 01:59 | 41.54676 | -72.02572 | 19609 ft | 438 kts | 58° |
| 2026-05-09 01:59 | 41.55945 | -71.99028 | 19368 ft | 440 kts | 60° |
| 2026-05-09 01:59 | 41.57107 | -71.95262 | 19122 ft | 437 kts | 64° |
| 2026-05-09 02:00 | 41.58194 | -71.91480 | 18900 ft | 435 kts | 64° |
| 2026-05-09 02:00 | 41.59287 | -71.87722 | 18660 ft | 433 kts | 63° |
| 2026-05-09 02:00 | 41.60388 | -71.83983 | 18421 ft | 431 kts | 63° |
| 2026-05-09 02:00 | 41.61487 | -71.80266 | 18173 ft | 430 kts | 63° |
| 2026-05-09 02:01 | 41.62584 | -71.76558 | 17901 ft | 428 kts | 63° |
| 2026-05-09 02:01 | 41.63676 | -71.72856 | 17628 ft | 427 kts | 63° |
| 2026-05-09 02:01 | 41.64764 | -71.69165 | 17383 ft | 426 kts | 63° |
| 2026-05-09 02:01 | 41.65847 | -71.65484 | 17131 ft | 425 kts | 64° |
| 2026-05-09 02:02 | 41.66926 | -71.61813 | 16868 ft | 424 kts | 64° |
| 2026-05-09 02:02 | 41.68001 | -71.58146 | 16608 ft | 422 kts | 64° |
| 2026-05-09 02:02 | 41.69070 | -71.54492 | 16340 ft | 421 kts | 64° |
| 2026-05-09 02:02 | 41.70133 | -71.50857 | 16108 ft | 419 kts | 64° |
| 2026-05-09 02:03 | 41.71189 | -71.47240 | 15863 ft | 416 kts | 64° |
| 2026-05-09 02:03 | 41.72241 | -71.43637 | 15606 ft | 414 kts | 63° |
| 2026-05-09 02:03 | 41.73457 | -71.40189 | 15293 ft | 406 kts | 55° |
| 2026-05-09 02:03 | 41.74894 | -71.36976 | 14928 ft | 400 kts | 53° |
| 2026-05-09 02:04 | 41.76343 | -71.33805 | 14517 ft | 399 kts | 53° |
| 2026-05-09 02:04 | 41.77748 | -71.30616 | 14113 ft | 396 kts | 55° |
| 2026-05-09 02:04 | 41.79111 | -71.27439 | 13684 ft | 390 kts | 55° |
| 2026-05-09 02:04 | 41.80436 | -71.24315 | 13206 ft | 379 kts | 55° |
| 2026-05-09 02:05 | 41.81714 | -71.21296 | 12804 ft | 367 kts | 55° |
| 2026-05-09 02:05 | 41.82956 | -71.18370 | 12443 ft | 355 kts | 54° |
| 2026-05-09 02:05 | 41.84158 | -71.15539 | 12156 ft | 343 kts | 54° |
| 2026-05-09 02:05 | 41.85313 | -71.12814 | 12017 ft | 329 kts | 54° |
| 2026-05-09 02:06 | 41.86438 | -71.10188 | 11905 ft | 323 kts | 54° |
| 2026-05-09 02:06 | 41.87565 | -71.07586 | 11769 ft | 323 kts | 54° |
| 2026-05-09 02:06 | 41.88698 | -71.04978 | 11624 ft | 324 kts | 54° |
| 2026-05-09 02:07 | 41.90912 | -70.99864 | 11343 ft | 324 kts | 54° |
| 2026-05-09 02:07 | 41.92033 | -70.97266 | 11193 ft | 323 kts | 54° |
| 2026-05-09 02:07 | 41.93157 | -70.94658 | 10974 ft | 322 kts | 54° |
| 2026-05-09 02:07 | 41.94275 | -70.92059 | 10718 ft | 320 kts | 54° |
| 2026-05-09 02:08 | 41.95381 | -70.89485 | 10461 ft | 318 kts | 54° |
| 2026-05-09 02:08 | 41.96484 | -70.86917 | 10207 ft | 316 kts | 54° |
| 2026-05-09 02:08 | 41.97579 | -70.84367 | 9972 ft | 314 kts | 54° |
| 2026-05-09 02:08 | 41.98667 | -70.81830 | 9713 ft | 312 kts | 54° |
| 2026-05-09 02:09 | 41.99748 | -70.79306 | 9446 ft | 311 kts | 55° |
| 2026-05-09 02:09 | 42.00821 | -70.76807 | 9184 ft | 308 kts | 55° |
| 2026-05-09 02:09 | 42.02063 | -70.74502 | 8910 ft | 301 kts | 44° |
| 2026-05-09 02:09 | 42.03475 | -70.72447 | 8650 ft | 298 kts | 41° |
| 2026-05-09 02:10 | 42.04896 | -70.70434 | 8384 ft | 296 kts | 41° |
| 2026-05-09 02:10 | 42.06294 | -70.68405 | 8140 ft | 294 kts | 43° |
| 2026-05-09 02:10 | 42.07670 | -70.66369 | 8060 ft | 296 kts | 43° |
| 2026-05-09 02:10 | 42.09054 | -70.64302 | 8046 ft | 297 kts | 43° |
| 2026-05-09 02:11 | 42.10489 | -70.62346 | 8010 ft | 289 kts | 30° |
| 2026-05-09 02:11 | 42.12274 | -70.61263 | 7866 ft | 280 kts | 8° |
| 2026-05-09 02:11 | 42.14191 | -70.60794 | 7617 ft | 281 kts | 3° |
| 2026-05-09 02:11 | 42.16119 | -70.60408 | 7353 ft | 279 kts | 2° |
| 2026-05-09 02:12 | 42.18028 | -70.60030 | 7113 ft | 276 kts | 4° |
| 2026-05-09 02:12 | 42.19914 | -70.59649 | 6822 ft | 273 kts | 4° |
| 2026-05-09 02:12 | 42.21783 | -70.59264 | 6585 ft | 271 kts | 4° |
| 2026-05-09 02:12 | 42.23643 | -70.58894 | 6354 ft | 268 kts | 0° |
| 2026-05-09 02:13 | 42.25416 | -70.59214 | 6098 ft | 258 kts | 334° |
| 2026-05-09 02:13 | 42.26987 | -70.60297 | 5919 ft | 251 kts | 327° |
| 2026-05-09 02:13 | 42.28480 | -70.61460 | 5771 ft | 244 kts | 326° |
| 2026-05-09 02:13 | 42.29925 | -70.62598 | 5658 ft | 237 kts | 326° |
| 2026-05-09 02:14 | 42.31323 | -70.63704 | 5589 ft | 228 kts | 326° |
| 2026-05-09 02:14 | 42.32663 | -70.64764 | 5570 ft | 218 kts | 326° |
| 2026-05-09 02:14 | 42.33952 | -70.65779 | 5562 ft | 213 kts | 326° |
| 2026-05-09 02:14 | 42.35245 | -70.66799 | 5355 ft | 218 kts | 326° |
| 2026-05-09 02:15 | 42.36553 | -70.67837 | 5162 ft | 216 kts | 326° |
| 2026-05-09 02:15 | 42.37832 | -70.68856 | 5014 ft | 212 kts | 326° |
| 2026-05-09 02:15 | 42.39087 | -70.69917 | 4785 ft | 210 kts | 316° |
| 2026-05-09 02:15 | 42.39869 | -70.71506 | 4692 ft | 203 kts | 283° |
| 2026-05-09 02:16 | 42.40093 | -70.73386 | 4665 ft | 204 kts | 276° |
| 2026-05-09 02:16 | 42.40166 | -70.74652 | 4577 ft | 204 kts | 269° |
| 2026-05-09 02:16 | 42.39978 | -70.76557 | 4311 ft | 206 kts | 259° |
| 2026-05-09 02:16 | 42.39646 | -70.78454 | 4064 ft | 207 kts | 257° |
| 2026-05-09 02:17 | 42.39301 | -70.80347 | 3841 ft | 207 kts | 257° |
| 2026-05-09 02:17 | 42.38959 | -70.82247 | 3532 ft | 211 kts | 258° |
| 2026-05-09 02:17 | 42.38606 | -70.84226 | 3180 ft | 217 kts | 257° |
| 2026-05-09 02:17 | 42.38256 | -70.86186 | 3070 ft | 211 kts | 258° |
| 2026-05-09 02:18 | 42.37917 | -70.88091 | 3029 ft | 206 kts | 258° |
| 2026-05-09 02:18 | 42.37582 | -70.89973 | 3047 ft | 206 kts | 257° |
| 2026-05-09 02:18 | 42.37247 | -70.91859 | 3045 ft | 206 kts | 257° |
| 2026-05-09 02:18 | 42.36913 | -70.93743 | 3029 ft | 206 kts | 257° |
| 2026-05-09 02:19 | 42.36580 | -70.95624 | 3034 ft | 205 kts | 257° |
| 2026-05-09 02:19 | 42.36248 | -70.97496 | 3036 ft | 205 kts | 257° |
| 2026-05-09 02:19 | 42.35917 | -70.99367 | 3034 ft | 204 kts | 257° |
| 2026-05-09 02:19 | 42.35587 | -71.01235 | 3028 ft | 204 kts | 257° |
| 2026-05-09 02:20 | 42.35118 | -71.03038 | 3022 ft | 206 kts | 237° |
| 2026-05-09 02:20 | 42.33998 | -71.04222 | 3039 ft | 210 kts | 201° |
| 2026-05-09 02:20 | 42.32538 | -71.04313 | 3038 ft | 216 kts | 171° |
| 2026-05-09 02:20 | 42.31079 | -71.03778 | 3038 ft | 219 kts | 166° |
| 2026-05-09 02:21 | 42.29608 | -71.03180 | 3056 ft | 222 kts | 166° |
| 2026-05-09 02:21 | 42.28124 | -71.02571 | 3038 ft | 224 kts | 166° |
| 2026-05-09 02:21 | 42.26720 | -71.01661 | 3022 ft | 228 kts | 140° |
| 2026-05-09 02:21 | 42.25863 | -70.99883 | 3029 ft | 230 kts | 105° |
| 2026-05-09 02:22 | 42.25826 | -70.97755 | 3049 ft | 228 kts | 79° |
| 2026-05-09 02:22 | 42.26148 | -70.95661 | 3036 ft | 228 kts | 76° |
| 2026-05-09 02:22 | 42.26500 | -70.93570 | 3035 ft | 229 kts | 76° |
| 2026-05-09 02:22 | 42.26856 | -70.91475 | 3032 ft | 229 kts | 76° |
| 2026-05-09 02:23 | 42.27215 | -70.89381 | 3033 ft | 229 kts | 76° |
| 2026-05-09 02:23 | 42.27574 | -70.87284 | 3022 ft | 229 kts | 76° |
| 2026-05-09 02:23 | 42.27932 | -70.85186 | 3020 ft | 230 kts | 76° |
| 2026-05-09 02:23 | 42.28288 | -70.83085 | 3020 ft | 230 kts | 76° |
| 2026-05-09 02:24 | 42.28644 | -70.80980 | 3029 ft | 229 kts | 76° |
| 2026-05-09 02:24 | 42.28997 | -70.78897 | 2881 ft | 227 kts | 76° |
| 2026-05-09 02:24 | 42.29354 | -70.76820 | 2608 ft | 227 kts | 73° |
| 2026-05-09 02:24 | 42.30105 | -70.74987 | 2322 ft | 223 kts | 40° |
| 2026-05-09 02:25 | 42.31438 | -70.74065 | 2101 ft | 215 kts | 4° |
| 2026-05-09 02:25 | 42.32911 | -70.74188 | 2077 ft | 212 kts | 347° |
| 2026-05-09 02:25 | 42.34363 | -70.74544 | 2026 ft | 211 kts | 346° |
| 2026-05-09 02:25 | 42.35800 | -70.74912 | 2016 ft | 209 kts | 346° |
| 2026-05-09 02:26 | 42.37150 | -70.75554 | 2005 ft | 205 kts | 320° |
| 2026-05-09 02:26 | 42.37973 | -70.77054 | 2025 ft | 200 kts | 290° |
| 2026-05-09 02:26 | 42.38404 | -70.78824 | 2028 ft | 202 kts | 286° |
| 2026-05-09 02:26 | 42.38806 | -70.80659 | 2028 ft | 204 kts | 281° |
| 2026-05-09 02:27 | 42.38472 | -70.82456 | 2067 ft | 202 kts | 246° |
| 2026-05-09 02:27 | 42.38582 | -70.84230 | 2096 ft | 198 kts | 295° |
| 2026-05-09 02:27 | 42.38762 | -70.86055 | 2202 ft | 203 kts | 258° |
| 2026-05-09 02:27 | 42.38200 | -70.87866 | 1781 ft | 217 kts | 237° |
| 2026-05-09 02:28 | 42.37062 | -70.89220 | 1462 ft | 223 kts | 206° |
| 2026-05-09 02:28 | 42.35577 | -70.89484 | 1641 ft | 215 kts | 172° |
| 2026-05-09 02:28 | 42.34157 | -70.88996 | 1939 ft | 209 kts | 166° |
| 2026-05-09 02:28 | 42.32752 | -70.88430 | 2127 ft | 214 kts | 166° |
| 2026-05-09 02:29 | 42.31325 | -70.87842 | 2124 ft | 215 kts | 163° |
| 2026-05-09 02:29 | 42.30074 | -70.86747 | 2125 ft | 219 kts | 130° |
| 2026-05-09 02:29 | 42.29489 | -70.84880 | 2123 ft | 218 kts | 94° |
| 2026-05-09 02:29 | 42.29651 | -70.82871 | 2143 ft | 215 kts | 77° |
| 2026-05-09 02:30 | 42.29962 | -70.80916 | 2140 ft | 211 kts | 76° |
| 2026-05-09 02:30 | 42.30277 | -70.78992 | 2123 ft | 210 kts | 76° |
| 2026-05-09 02:30 | 42.30596 | -70.77056 | 2123 ft | 212 kts | 76° |
| 2026-05-09 02:30 | 42.31118 | -70.75220 | 2102 ft | 209 kts | 49° |
| 2026-05-09 02:31 | 42.32265 | -70.74127 | 2121 ft | 202 kts | 12° |
| 2026-05-09 02:31 | 42.33634 | -70.74103 | 2134 ft | 197 kts | 348° |
| 2026-05-09 02:31 | 42.34993 | -70.74424 | 2120 ft | 199 kts | 346° |
| 2026-05-09 02:31 | 42.36358 | -70.74773 | 2117 ft | 199 kts | 343° |
| 2026-05-09 02:32 | 42.37544 | -70.75629 | 2111 ft | 192 kts | 309° |
| 2026-05-09 02:32 | 42.38073 | -70.77238 | 2128 ft | 189 kts | 278° |
| 2026-05-09 02:32 | 42.38209 | -70.79014 | 2123 ft | 190 kts | 276° |
| 2026-05-09 02:32 | 42.38347 | -70.80852 | 1711 ft | 200 kts | 276° |
| 2026-05-09 02:33 | 42.38477 | -70.82627 | 1715 ft | 182 kts | 276° |
| 2026-05-09 02:33 | 42.38523 | -70.84284 | 1715 ft | 172 kts | 263° |
| 2026-05-09 02:33 | 42.38290 | -70.85853 | 1740 ft | 169 kts | 260° |
| 2026-05-09 02:33 | 42.38042 | -70.87376 | 1739 ft | 168 kts | 258° |
| 2026-05-09 02:34 | 42.37766 | -70.88948 | 1547 ft | 170 kts | 258° |
| 2026-05-09 02:34 | 42.37491 | -70.90487 | 1318 ft | 164 kts | 257° |
| 2026-05-09 02:34 | 42.37230 | -70.91958 | 1083 ft | 155 kts | 258° |
| 2026-05-09 02:34 | 42.36987 | -70.93323 | 877 ft | 146 kts | 257° |
| 2026-05-09 02:35 | 42.36755 | -70.94633 | 684 ft | 140 kts | 257° |
| 2026-05-09 02:35 | 42.36533 | -70.95885 | 503 ft | 136 kts | 257° |
| 2026-05-09 02:35 | 42.36316 | -70.97113 | 333 ft | 136 kts | 257° |
| 2026-05-09 02:35 | 42.36092 | -70.98348 | 120 ft | 132 kts | 258° |
| 2026-05-09 02:36 | 42.35892 | -70.99515 | 24 ft | 112 kts | 256° |
| 2026-05-09 02:36 | 42.35764 | -71.00260 | 24 ft | 54 kts | 258° |
| 2026-05-09 02:36 | 42.35775 | -71.00584 | 29 ft | 31 kts | 278° |
| 2026-05-09 02:36 | 42.35800 | -71.00792 | 24 ft | 21 kts | 281° |
| 2026-05-09 02:37 | 42.35820 | -71.00986 | 27 ft | 21 kts | 275° |
| 2026-05-09 02:37 | 42.35838 | -71.01174 | 25 ft | 20 kts | 278° |
| 2026-05-09 02:37 | 42.35846 | -71.01252 | 24 ft | 0 kts | 277° |
| 2026-05-09 02:38 | 42.35847 | -71.01264 | 29 ft | 6 kts | 277° |
| 2026-05-09 02:38 | 42.35854 | -71.01342 | 24 ft | 9 kts | 277° |
| 2026-05-09 02:38 | 42.35864 | -71.01431 | 27 ft | 9 kts | 282° |
| 2026-05-09 02:38 | 42.35880 | -71.01518 | 28 ft | 10 kts | 281° |
| 2026-05-09 02:39 | 42.35891 | -71.01608 | 24 ft | 10 kts | 279° |
| 2026-05-09 02:39 | 42.35901 | -71.01696 | 25 ft | 9 kts | 279° |
| 2026-05-09 02:39 | 42.35913 | -71.01781 | 24 ft | 9 kts | 285° |
| 2026-05-09 02:39 | 42.35942 | -71.01871 | 24 ft | 13 kts | 298° |
| 2026-05-09 02:40 | 42.35992 | -71.01984 | 25 ft | 14 kts | 301° |
| 2026-05-09 02:40 | 42.36043 | -71.02097 | 24 ft | 14 kts | 301° |
| 2026-05-09 02:40 | 42.36091 | -71.02206 | 28 ft | 13 kts | 301° |
| 2026-05-09 02:40 | 42.36158 | -71.02277 | 27 ft | 13 kts | 356° |
| 2026-05-09 02:41 | 42.36209 | -71.02245 | 25 ft | 5 kts | 96° |
| 2026-05-09 02:41 | 42.36208 | -71.02202 | 24 ft | 5 kts | 107° |
| 2026-05-09 02:41 | 42.36198 | -71.02182 | 28 ft | 0 kts | 131° |